Time;durP1;ratioP1;P1;durP2;ratioP2;P2;SDS_P1;SDS_P2;PMS_P1;PMS_P2;Temp;Humidity;BMP_temperature;BMP_pressure;BME280_temperature;BME280_humidity;BME280_pressure;Samples;Min_cycle;Max_cycle;Signal;HPM_P1;HPM_P2
2022/06/20 00:00:25;;;;;;;4.50;4.10;;;;;;;18.94;100.00;98692.13;5098873;27;20313;-80
2022/06/20 00:02:55;;;;;;;5.03;4.00;;;;;;;18.87;100.00;98692.47;5101482;28;20287;-80
2022/06/20 00:05:25;;;;;;;4.73;3.90;;;;;;;18.86;100.00;98688.16;5100587;27;20234;-81
2022/06/20 00:07:52;;;;;;;5.03;4.07;;;;;;;18.86;100.00;98690.03;5126755;27;20597;-81
2022/06/20 00:10:21;;;;;;;4.60;4.10;;;;;;;18.78;100.00;98688.00;5099132;27;20257;-82
2022/06/20 00:12:48;;;;;;;4.80;4.40;;;;;;;18.79;100.00;98692.34;5086908;28;20232;-81
2022/06/20 00:15:35;;;;;;;4.27;3.87;;;;;;;18.71;100.00;98691.09;5112177;28;20260;-81
2022/06/20 00:18:05;;;;;;;4.20;3.83;;;;;;;18.68;100.00;98688.97;5111494;27;20231;-82
2022/06/20 00:20:38;;;;;;;4.67;4.10;;;;;;;18.64;100.00;98676.31;5119550;27;20315;-81
2022/06/20 00:23:04;;;;;;;4.33;4.03;;;;;;;18.62;100.00;98673.06;5121620;27;20191;-81
2022/06/20 00:25:31;;;;;;;4.57;4.17;;;;;;;18.60;100.00;98678.00;5097521;28;20715;-81
2022/06/20 00:27:58;;;;;;;5.03;4.10;;;;;;;18.59;100.00;98671.75;5104599;27;20256;-81
2022/06/20 00:30:25;;;;;;;4.20;3.90;;;;;;;18.49;100.00;98680.81;5103710;27;20227;-82
2022/06/20 00:32:52;;;;;;;4.90;4.50;;;;;;;18.43;100.00;98676.56;5097177;28;20390;-81
2022/06/20 00:35:18;;;;;;;4.77;4.30;;;;;;;18.36;100.00;98676.13;5095069;28;20235;-82
2022/06/20 00:37:45;;;;;;;4.57;4.17;;;;;;;18.32;100.00;98677.81;5121406;27;20738;-82
2022/06/20 00:40:33;;;;;;;4.30;3.90;;;;;;;18.30;100.00;98669.16;5102548;28;20262;-80
2022/06/20 00:43:00;;;;;;;5.00;4.40;;;;;;;18.28;100.00;98673.28;5094601;28;20701;-81
2022/06/20 00:45:30;;;;;;;4.60;4.20;;;;;;;18.24;100.00;98678.50;5092955;28;20305;-81
2022/06/20 00:48:02;;;;;;;4.27;3.97;;;;;;;18.18;100.00;98676.94;5077591;28;20320;-81
2022/06/20 00:50:32;;;;;;;6.43;4.37;;;;;;;18.08;100.00;98668.94;5079365;28;20226;-81
2022/06/20 00:53:04;;;;;;;4.47;4.07;;;;;;;18.04;100.00;98681.47;5077580;28;20809;-81
2022/06/20 00:55:37;;;;;;;5.50;4.40;;;;;;;18.01;100.00;98685.53;5074393;28;20263;-81
2022/06/20 00:58:17;;;;;;;5.17;4.40;;;;;;;17.95;100.00;98678.59;5070125;28;20699;-81
2022/06/20 01:00:43;;;;;;;4.20;3.90;;;;;;;17.91;100.00;98679.47;5086781;28;20214;-82
2022/06/20 01:03:16;;;;;;;4.83;4.37;;;;;;;17.93;100.00;98679.97;5088094;28;20589;-81
2022/06/20 01:05:49;;;;;;;4.70;4.20;;;;;;;17.85;100.00;98676.00;5084869;28;20234;-80
2022/06/20 01:08:20;;;;;;;4.93;4.53;;;;;;;17.87;100.00;98676.50;5081308;28;20280;-81
2022/06/20 01:11:04;;;;;;;5.07;4.57;;;;;;;17.81;100.00;98661.44;5086400;28;20242;-80
2022/06/20 01:13:32;;;;;;;4.90;4.43;;;;;;;17.82;100.00;98660.34;5078555;28;20599;-78
2022/06/20 01:16:07;;;;;;;5.10;4.70;;;;;;;17.76;100.00;98657.97;5075978;28;20230;-80
2022/06/20 01:18:35;;;;;;;4.50;4.10;;;;;;;17.75;100.00;98656.34;5069333;28;20231;-81
2022/06/20 01:21:05;;;;;;;4.67;4.27;;;;;;;17.65;100.00;98657.28;5069924;28;20229;-80
2022/06/20 01:23:49;;;;;;;5.43;4.90;;;;;;;17.64;100.00;98646.75;5076863;28;20574;-80
2022/06/20 01:26:40;;;;;;;5.40;4.07;;;;;;;17.62;100.00;98641.63;5080658;28;20766;-80
2022/06/20 01:29:09;;;;;;;4.90;4.40;;;;;;;17.59;100.00;98639.47;5076914;28;20245;-81
2022/06/20 01:31:49;;;;;;;5.00;4.50;;;;;;;17.60;100.00;98638.38;5074276;28;20221;-80
2022/06/20 01:34:17;;;;;;;4.87;4.43;;;;;;;17.59;100.00;98642.97;5082683;28;20249;-82
2022/06/20 01:39:38;;;;;;;4.90;4.60;;;;;;;17.52;100.00;98625.44;5072131;28;20578;-81
2022/06/20 01:42:21;;;;;;;5.13;4.57;;;;;;;17.53;100.00;98625.16;5072870;28;20752;-83
2022/06/20 01:45:57;;;;;;;5.10;4.70;;;;;;;17.53;100.00;98627.06;5070688;28;20576;-81
2022/06/20 01:48:01;;;;;;;5.30;4.80;;;;;;;17.50;100.00;98624.91;5108130;28;20234;-81
2022/06/20 01:50:27;;;;;;;5.03;4.60;;;;;;;17.42;100.00;98625.56;5110145;28;20278;-81
2022/06/20 01:52:54;;;;;;;4.63;4.33;;;;;;;17.42;100.00;98618.25;5103888;28;20235;-81
2022/06/20 01:55:23;;;;;;;5.03;4.53;;;;;;;17.39;100.00;98634.28;5118533;28;20259;-81
2022/06/20 01:57:51;;;;;;;6.43;4.93;;;;;;;17.32;100.00;98641.91;5116515;28;20327;-80
2022/06/20 02:00:22;;;;;;;5.30;4.80;;;;;;;17.33;100.00;98643.53;5124822;27;20215;-81
2022/06/20 02:02:52;;;;;;;4.83;4.43;;;;;;;17.34;100.00;98637.03;5123039;27;20297;-80
2022/06/20 02:05:23;;;;;;;4.77;4.37;;;;;;;17.29;100.00;98642.50;5096846;28;20291;-79
2022/06/20 02:07:51;;;;;;;4.83;4.43;;;;;;;17.24;100.00;98646.06;5122896;27;20235;-81
2022/06/20 02:10:22;;;;;;;4.70;4.40;;;;;;;17.18;100.00;98637.19;5124632;27;20228;-83
2022/06/20 02:12:49;;;;;;;4.90;4.30;;;;;;;17.24;100.00;98643.34;5120347;27;20234;-80
2022/06/20 02:15:20;;;;;;;5.00;4.60;;;;;;;17.16;100.00;98644.00;5101171;27;20309;-81
2022/06/20 02:17:49;;;;;;;5.47;4.97;;;;;;;17.18;100.00;98653.41;5105010;27;20219;-80
2022/06/20 02:20:22;;;;;;;6.60;4.57;;;;;;;17.20;100.00;98652.34;5131675;27;20630;-80
2022/06/20 02:22:50;;;;;;;4.80;4.40;;;;;;;17.18;100.00;98650.72;5103916;27;20234;-81
2022/06/20 02:25:21;;;;;;;4.63;4.23;;;;;;;17.12;100.00;98654.56;5117959;27;20611;-81
2022/06/20 02:28:06;;;;;;;4.73;4.40;;;;;;;17.11;100.00;98652.97;5096996;27;20231;-81
2022/06/20 02:30:34;;;;;;;5.00;4.70;;;;;;;17.13;100.00;98647.25;5129420;27;20228;-81
2022/06/20 02:33:08;;;;;;;5.20;4.80;;;;;;;17.13;100.00;98645.34;5118955;27;20232;-81
2022/06/20 02:35:35;;;;;;;4.90;4.53;;;;;;;17.12;100.00;98651.06;5094666;28;20285;-79
2022/06/20 02:38:02;;;;;;;4.77;4.47;;;;;;;17.08;100.00;98639.16;5117061;27;20831;-80
2022/06/20 02:40:30;;;;;;;5.10;4.60;;;;;;;17.04;100.00;98649.78;5096983;28;20578;-81
2022/06/20 02:43:03;;;;;;;5.50;5.00;;;;;;;17.07;100.00;98648.41;5078937;27;20259;-81
2022/06/20 02:45:31;;;;;;;4.77;4.37;;;;;;;17.07;100.00;98643.00;5086946;28;20237;-84
2022/06/20 02:48:01;;;;;;;5.47;4.57;;;;;;;17.04;100.00;98641.66;5093925;28;20263;-81
2022/06/20 02:50:31;;;;;;;5.03;4.57;;;;;;;17.00;100.00;98648.72;5095190;28;20299;-82
2022/06/20 02:53:07;;;;;;;6.00;4.70;;;;;;;17.00;100.00;98654.13;5090020;28;20842;-83
2022/06/20 02:55:35;;;;;;;5.73;5.23;;;;;;;16.98;100.00;98656.31;5090263;28;20212;-84
2022/06/20 02:58:11;;;;;;;5.00;4.70;;;;;;;16.91;100.00;98657.75;5089497;28;20307;-83
2022/06/20 03:00:45;;;;;;;5.17;4.67;;;;;;;16.90;100.00;98661.53;5097547;28;20224;-82
2022/06/20 03:03:20;;;;;;;4.90;4.60;;;;;;;16.86;100.00;98664.00;5070250;28;20710;-82
2022/06/20 03:05:47;;;;;;;4.80;4.50;;;;;;;16.87;100.00;98662.09;5086174;28;20767;-84
2022/06/20 03:08:15;;;;;;;5.30;4.90;;;;;;;16.83;100.00;98664.59;5093485;28;20233;-82
2022/06/20 03:10:44;;;;;;;5.23;4.83;;;;;;;16.80;100.00;98673.25;5085368;28;20239;-84
2022/06/20 03:13:12;;;;;;;5.17;4.67;;;;;;;16.78;100.00;98669.22;5084735;28;20234;-84
2022/06/20 03:15:40;;;;;;;6.93;5.30;;;;;;;16.80;100.00;98664.34;5093360;28;20243;-82
2022/06/20 03:18:07;;;;;;;5.33;4.87;;;;;;;16.81;100.00;98655.94;5094941;28;20691;-83
2022/06/20 03:20:34;;;;;;;5.07;4.57;;;;;;;16.85;100.00;98656.16;5096182;28;20315;-81
2022/06/20 03:23:06;;;;;;;5.80;5.30;;;;;;;16.92;100.00;98662.06;5076587;28;20634;-82
2022/06/20 03:25:35;;;;;;;5.33;4.90;;;;;;;16.97;100.00;98660.13;5086704;28;20259;-82
2022/06/20 03:28:02;;;;;;;5.43;5.03;;;;;;;17.02;100.00;98651.97;5086651;28;20225;-82
2022/06/20 03:30:50;;;;;;;5.23;4.83;;;;;;;17.10;100.00;98653.25;5087845;28;20251;-84
2022/06/20 03:33:17;;;;;;;5.77;5.20;;;;;;;17.16;100.00;98652.09;5088836;28;20806;-84
2022/06/20 03:35:49;;;;;;;5.50;5.10;;;;;;;17.26;100.00;98657.44;5078643;28;20244;-82
2022/06/20 03:38:16;;;;;;;5.20;4.80;;;;;;;17.33;100.00;98657.06;5089503;28;20224;-80
2022/06/20 03:40:42;;;;;;;5.27;4.77;;;;;;;17.37;100.00;98663.50;5095257;28;20228;-83
2022/06/20 03:43:11;;;;;;;7.63;4.97;;;;;;;17.43;100.00;98657.78;5088331;28;20664;-82
2022/06/20 03:45:42;;;;;;;5.97;5.37;;;;;;;17.49;100.00;98656.63;5080780;27;20227;-81
2022/06/20 03:48:12;;;;;;;5.40;4.87;;;;;;;17.55;100.00;98650.03;5078859;28;20727;-84
2022/06/20 03:50:53;;;;;;;5.43;4.93;;;;;;;17.66;100.00;98660.78;5084447;28;20251;-83
2022/06/20 03:53:34;;;;;;;5.20;4.90;;;;;;;17.78;100.00;98663.88;5083099;28;20659;-84
2022/06/20 03:56:25;;;;;;;5.00;4.60;;;;;;;17.90;100.00;98653.47;5086935;28;20234;-81
2022/06/20 03:59:09;;;;;;;5.23;4.73;;;;;;;18.01;100.00;98649.50;5089995;28;20252;-81
2022/06/20 04:01:45;;;;;;;5.20;4.80;;;;;;;18.07;100.00;98647.53;5090353;28;20237;-82
2022/06/20 04:04:21;;;;;;;5.93;4.97;;;;;;;18.29;100.00;98651.28;5081552;28;20282;-81
2022/06/20 04:06:54;;;;;;;5.40;4.70;;;;;;;18.73;100.00;98658.25;5087679;28;20290;-84
2022/06/20 04:12:07;;;;;;;4.87;4.47;;;;;;;19.86;100.00;98659.47;5084346;28;20710;-82
2022/06/20 04:14:46;;;;;;;5.03;4.63;;;;;;;20.44;100.00;98661.47;5087268;28;20225;-82
2022/06/20 04:20:42;;;;;;;5.00;4.60;;;;;;;21.44;100.00;98660.91;5055450;28;20238;-83
2022/06/20 04:23:18;;;;;;;4.80;4.40;;;;;;;21.98;100.00;98649.91;5090462;28;20736;-82
2022/06/20 04:25:52;;;;;;;4.90;4.50;;;;;;;22.65;100.00;98661.19;5088861;28;20706;-80
2022/06/20 04:28:24;;;;;;;4.97;4.53;;;;;;;23.23;100.00;98658.72;5089443;28;20269;-80
2022/06/20 04:31:02;;;;;;;5.13;4.53;;;;;;;23.86;100.00;98695.31;5092262;28;20231;-81
2022/06/20 04:33:34;;;;;;;4.90;4.20;;;;;;;24.72;93.46;98702.22;5082076;28;20230;-80
2022/06/20 04:36:07;;;;;;;4.97;4.33;;;;;;;25.30;85.09;98685.56;5091105;28;20199;-79
2022/06/20 04:38:41;;;;;;;4.75;4.35;;;;;;;25.75;79.01;98682.03;5092450;28;20223;-80
2022/06/20 04:41:17;;;;;;;5.93;4.50;;;;;;;25.59;76.42;98681.88;5088073;28;20283;-82
2022/06/20 04:43:51;;;;;;;5.10;4.60;;;;;;;24.86;84.74;98675.34;5067095;28;20243;-81
2022/06/20 04:46:31;;;;;;;5.18;4.53;;;;;;;24.22;92.07;98664.72;5090274;28;20257;-81
2022/06/20 04:48:59;;;;;;;5.10;4.68;;;;;;;23.89;97.62;98678.25;5081594;28;20282;-80
2022/06/20 04:51:33;;;;;;;5.28;4.80;;;;;;;23.64;100.00;98679.19;5105129;28;20598;-81
2022/06/20 04:53:59;;;;;;;5.20;4.80;;;;;;;23.50;100.00;98681.34;5114961;28;20231;-82
2022/06/20 04:56:29;;;;;;;5.90;5.20;;;;;;;23.39;100.00;98690.97;5085080;28;20696;-81
2022/06/20 04:58:58;;;;;;;6.63;5.90;;;;;;;23.30;100.00;98687.47;5109342;28;20231;-80
2022/06/20 05:01:26;;;;;;;6.13;5.53;;;;;;;23.11;100.00;98693.28;5067024;28;20662;-79
2022/06/20 05:03:57;;;;;;;5.68;5.28;;;;;;;23.01;100.00;98685.44;5079848;28;20221;-81
2022/06/20 05:06:27;;;;;;;6.63;5.70;;;;;;;23.14;100.00;98684.47;5088578;28;20230;-82
2022/06/20 05:08:59;;;;;;;6.05;5.55;;;;;;;23.13;100.00;98680.94;5093071;28;20668;-81
2022/06/20 05:11:35;;;;;;;6.40;5.53;;;;;;;23.22;100.00;98695.38;5087625;28;20238;-80
2022/06/20 05:14:54;;;;;;;6.25;5.65;;;;;;;23.32;100.00;98699.69;5093760;28;20231;-82
2022/06/20 05:17:26;;;;;;;6.07;5.68;;;;;;;23.38;100.00;98694.81;5103107;28;20231;-82
2022/06/20 05:19:57;;;;;;;6.05;5.55;;;;;;;23.36;100.00;98697.91;5092838;28;20687;-83
2022/06/20 05:22:28;;;;;;;6.10;5.60;;;;;;;23.34;100.00;98694.69;5085315;28;20223;-83
2022/06/20 05:24:55;;;;;;;5.95;5.45;;;;;;;23.42;100.00;98685.69;5079961;28;20223;-79
2022/06/20 05:27:25;;;;;;;6.18;5.68;;;;;;;23.61;100.00;98693.50;5115338;28;20298;-80
2022/06/20 05:29:54;;;;;;;6.20;5.70;;;;;;;23.47;100.00;98688.25;5092021;28;20294;-80
2022/06/20 05:32:30;;;;;;;6.13;5.65;;;;;;;23.59;100.00;98682.09;5115782;28;20371;-80
2022/06/20 05:35:07;;;;;;;6.78;5.75;;;;;;;23.80;100.00;98676.69;5094232;28;20197;-81
2022/06/20 05:37:55;;;;;;;5.97;5.53;;;;;;;23.93;100.00;98684.69;5080706;27;20212;-79
2022/06/20 05:40:30;;;;;;;5.68;5.28;;;;;;;24.14;100.00;98696.47;5091348;28;20326;-80
2022/06/20 05:42:57;;;;;;;5.85;5.45;;;;;;;24.16;100.00;98685.22;5121027;27;20726;-81
2022/06/20 05:45:25;;;;;;;6.43;5.97;;;;;;;24.27;100.00;98688.38;5118977;27;20233;-80
2022/06/20 05:47:56;;;;;;;6.20;5.70;;;;;;;24.31;100.00;98689.34;5129808;27;20671;-82
2022/06/20 05:50:43;;;;;;;5.90;5.40;;;;;;;24.44;100.00;98697.28;5096147;28;20819;-81
2022/06/20 05:53:24;;;;;;;6.18;5.57;;;;;;;24.35;100.00;98682.84;5097861;28;20231;-80
2022/06/20 05:55:54;;;;;;;6.57;6.07;;;;;;;24.41;100.00;98680.69;5111882;27;20604;-81
2022/06/20 05:58:31;;;;;;;6.22;5.72;;;;;;;24.61;100.00;98671.69;5113847;27;20279;-80
2022/06/20 06:01:02;;;;;;;6.82;5.90;;;;;;;24.77;98.73;98675.44;5121579;27;20250;-81
2022/06/20 06:03:44;;;;;;;8.65;7.95;;;;;;;24.95;94.93;98678.84;5103278;27;20260;-81
2022/06/20 06:06:23;;;;;;;5.65;5.15;;;;;;;25.07;94.04;98673.41;5096373;28;20245;-80
2022/06/20 06:08:55;;;;;;;5.65;5.03;;;;;;;25.16;91.71;98679.59;5112045;27;20241;-80
2022/06/20 06:11:54;;;;;;;5.60;5.10;;;;;;;25.19;90.87;98678.94;5108581;28;20241;-80
2022/06/20 06:14:24;;;;;;;5.15;4.65;;;;;;;25.28;90.05;98670.63;5099091;27;20282;-80
2022/06/20 06:17:12;;;;;;;7.03;5.05;;;;;;;25.34;89.34;98672.78;5116231;27;20243;-81
2022/06/20 06:20:03;;;;;;;6.85;5.25;;;;;;;25.39;88.01;98661.59;5110507;28;20771;-80
2022/06/20 06:22:36;;;;;;;6.07;5.00;;;;;;;25.42;89.50;98663.69;5104652;27;20295;-80
2022/06/20 06:25:25;;;;;;;5.38;4.90;;;;;;;25.59;88.21;98672.88;5102173;27;20283;-80
2022/06/20 06:27:55;;;;;;;5.32;4.82;;;;;;;25.80;87.08;98674.34;5119714;27;20189;-80
2022/06/20 06:30:31;;;;;;;5.90;4.80;;;;;;;25.86;86.58;98670.25;5115619;27;20993;-80
2022/06/20 06:33:03;;;;;;;6.00;5.40;;;;;;;26.07;85.66;98661.09;5100532;28;20215;-80
2022/06/20 06:35:42;;;;;;;6.43;5.93;;;;;;;26.12;83.94;98658.94;5114031;28;20208;-79
2022/06/20 06:38:15;;;;;;;5.38;4.97;;;;;;;26.23;81.09;98646.34;5098253;27;20231;-80
2022/06/20 06:40:50;;;;;;;6.28;5.53;;;;;;;26.36;80.16;98652.63;5113869;27;20230;-80
2022/06/20 06:43:21;;;;;;;6.38;5.88;;;;;;;26.31;77.34;98657.56;5095565;28;20275;-80
2022/06/20 06:45:50;;;;;;;9.05;7.35;;;;;;;26.06;80.83;98657.56;5103141;27;20238;-81
2022/06/20 06:48:41;;;;;;;7.30;6.20;;;;;;;26.18;80.37;98649.28;5077405;28;20231;-80
2022/06/20 06:51:22;;;;;;;6.72;6.22;;;;;;;26.41;79.35;98648.84;5122562;27;20607;-79
2022/06/20 06:53:54;;;;;;;7.38;6.68;;;;;;;26.49;78.98;98636.91;5110866;27;20254;-79
2022/06/20 06:56:28;;;;;;;6.53;5.93;;;;;;;26.61;76.53;98634.09;5083293;27;20219;-79
2022/06/20 06:59:00;;;;;;;6.95;6.25;;;;;;;26.66;74.53;98626.41;5110237;27;20233;-82
2022/06/20 07:01:31;;;;;;;7.15;5.70;;;;;;;26.70;73.29;98627.31;5096584;28;20244;-80
2022/06/20 07:04:08;;;;;;;6.40;5.88;;;;;;;26.61;73.58;98631.34;5096244;27;20234;-79
2022/06/20 07:06:41;;;;;;;6.47;5.88;;;;;;;26.79;73.89;98637.34;5086934;28;20227;-79
2022/06/20 07:09:28;;;;;;;6.28;5.60;;;;;;;27.04;71.97;98636.94;5104742;27;21146;-80
2022/06/20 07:12:09;;;;;;;6.35;5.75;;;;;;;27.12;71.94;98641.47;5108682;27;20248;-81
2022/06/20 07:14:41;;;;;;;6.38;5.85;;;;;;;27.13;70.41;98628.50;5100106;27;20242;-80
2022/06/20 07:17:19;;;;;;;6.60;5.75;;;;;;;27.12;71.82;98622.22;5099337;28;20587;-80
2022/06/20 07:19:49;;;;;;;6.40;6.00;;;;;;;27.07;72.92;98621.66;5116406;27;20227;-80
2022/06/20 07:22:16;;;;;;;6.35;5.82;;;;;;;27.19;72.95;98618.06;5089860;27;20239;-81
2022/06/20 07:24:44;;;;;;;5.95;4.97;;;;;;;26.99;71.76;98611.63;5111004;27;20679;-79
2022/06/20 07:27:37;;;;;;;5.32;4.82;;;;;;;27.21;72.75;98616.53;5109423;27;20314;-79
2022/06/20 07:30:16;;;;;;;5.07;4.57;;;;;;;27.40;72.38;98608.38;5087437;27;20232;-80
2022/06/20 07:32:46;;;;;;;5.00;4.57;;;;;;;27.56;70.37;98602.94;5106098;27;20235;-80
2022/06/20 07:35:20;;;;;;;6.28;4.72;;;;;;;27.53;70.07;98603.63;5101282;28;20637;-80
2022/06/20 07:37:52;;;;;;;5.88;4.45;;;;;;;27.64;69.98;98601.13;5107991;27;20229;-81
2022/06/20 07:40:34;;;;;;;5.00;4.50;;;;;;;27.76;68.59;98601.84;5094615;28;20715;-80
2022/06/20 07:43:08;;;;;;;5.03;4.63;;;;;;;27.89;67.06;98605.28;5090867;28;20287;-80
2022/06/20 07:45:39;;;;;;;4.82;4.53;;;;;;;28.03;67.86;98609.16;5100861;27;20230;-80
2022/06/20 07:48:12;;;;;;;5.18;4.78;;;;;;;28.13;67.80;98612.53;5100209;28;20235;-80
2022/06/20 07:51:13;;;;;;;5.43;4.93;;;;;;;28.13;67.69;98591.31;5112428;27;20220;-81
2022/06/20 07:53:48;;;;;;;5.30;4.90;;;;;;;28.15;66.82;98593.69;5103600;27;20234;-79
2022/06/20 07:56:18;;;;;;;5.03;4.72;;;;;;;28.26;65.71;98592.78;5117428;27;20230;-82
2022/06/20 07:58:52;;;;;;;5.75;4.78;;;;;;;28.27;65.94;98583.34;5106437;27;20605;-79
2022/06/20 08:01:23;;;;;;;5.50;5.10;;;;;;;28.43;66.41;98591.53;5094822;28;20227;-80
2022/06/20 08:03:55;;;;;;;5.18;4.70;;;;;;;28.46;65.25;98593.59;5085349;27;20286;-80
2022/06/20 08:06:27;;;;;;;5.97;5.18;;;;;;;28.52;64.15;98596.81;5076224;27;20219;-81
2022/06/20 08:09:01;;;;;;;5.40;5.00;;;;;;;28.50;63.53;98596.41;5102555;27;20228;-80
2022/06/20 08:11:50;;;;;;;5.55;5.15;;;;;;;28.03;66.94;98589.88;5097504;28;20239;-80
2022/06/20 08:14:40;;;;;;;5.07;4.68;;;;;;;28.17;69.03;98589.44;5070526;27;20295;-80
2022/06/20 08:17:08;;;;;;;5.40;4.90;;;;;;;28.31;69.85;98586.97;5077636;28;20223;-80
2022/06/20 08:19:37;;;;;;;5.50;5.07;;;;;;;28.28;68.05;98582.19;5109702;27;20239;-79
2022/06/20 08:22:07;;;;;;;5.25;4.80;;;;;;;28.13;68.48;98579.50;5114619;27;20235;-79
2022/06/20 08:24:44;;;;;;;5.57;5.18;;;;;;;28.18;70.81;98587.47;5111330;28;20243;-81
2022/06/20 08:27:18;;;;;;;5.45;5.15;;;;;;;28.55;67.63;98580.38;5095601;27;20235;-81
2022/06/20 08:30:11;;;;;;;7.60;4.93;;;;;;;28.67;70.73;98579.41;5088844;28;20708;-80
2022/06/20 08:32:47;;;;;;;5.20;4.85;;;;;;;28.82;66.72;98579.38;5094501;27;20316;-79
2022/06/20 08:35:34;;;;;;;5.00;4.57;;;;;;;28.99;66.56;98585.56;5111850;27;20248;-80
2022/06/20 08:38:04;;;;;;;5.97;4.97;;;;;;;28.99;67.31;98588.31;5094758;27;20242;-79
2022/06/20 08:40:41;;;;;;;5.63;5.18;;;;;;;29.21;66.94;98599.34;5091057;28;20239;-80
2022/06/20 08:43:10;;;;;;;6.07;5.57;;;;;;;29.20;65.98;98603.31;5097637;28;20239;-79
2022/06/20 08:46:05;;;;;;;6.75;6.10;;;;;;;29.30;63.54;98604.69;5112090;27;20692;-80
2022/06/20 08:48:58;;;;;;;5.93;5.43;;;;;;;29.50;63.64;98600.66;5088973;28;20242;-81
2022/06/20 08:52:06;;;;;;;6.15;5.60;;;;;;;29.66;62.72;98595.81;5083979;28;20700;-81
2022/06/20 08:54:49;;;;;;;6.40;5.80;;;;;;;29.69;62.48;98597.81;5077782;28;20238;-81
2022/06/20 08:57:30;;;;;;;6.75;6.05;;;;;;;29.81;61.15;98585.00;5113328;28;20243;-81
2022/06/20 09:00:32;;;;;;;6.78;5.70;;;;;;;29.74;62.97;98586.47;5094798;28;20257;-80
2022/06/20 09:03:04;;;;;;;6.30;5.80;;;;;;;29.70;62.05;98584.84;5106840;28;20235;-79
2022/06/20 09:05:47;;;;;;;6.28;5.68;;;;;;;29.80;63.48;98583.41;5111347;28;20220;-80
2022/06/20 09:08:36;;;;;;;6.00;5.50;;;;;;;29.96;63.68;98586.81;5086001;28;20246;-80
2022/06/20 09:11:39;;;;;;;5.88;5.32;;;;;;;30.17;63.49;98576.88;5105308;28;20232;-80
2022/06/20 09:14:32;;;;;;;6.25;5.75;;;;;;;30.31;62.79;98570.72;5078554;28;20242;-81
2022/06/20 09:17:18;;;;;;;5.78;5.38;;;;;;;30.39;59.32;98572.41;5081380;27;20231;-81
2022/06/20 09:20:03;;;;;;;6.68;6.03;;;;;;;30.34;60.39;98569.97;5105348;27;20255;-80
2022/06/20 09:22:35;;;;;;;5.90;5.43;;;;;;;30.56;58.97;98557.25;5075759;28;20223;-80
2022/06/20 09:25:07;;;;;;;6.07;5.40;;;;;;;30.55;58.93;98558.41;5092323;28;20228;-81
2022/06/20 09:28:13;;;;;;;6.63;6.07;;;;;;;30.87;58.47;98544.94;5114859;28;20223;-81
2022/06/20 09:31:01;;;;;;;6.15;5.57;;;;;;;30.93;56.91;98557.25;5042602;28;20239;-81
2022/06/20 09:33:49;;;;;;;6.28;5.72;;;;;;;31.01;57.47;98548.66;5094733;28;20284;-80
2022/06/20 09:37:00;;;;;;;7.55;6.07;;;;;;;31.14;56.73;98545.59;5097929;28;20294;-81
2022/06/20 09:39:46;;;;;;;6.05;5.55;;;;;;;31.06;57.79;98539.22;5050721;28;20289;-82
2022/06/20 09:42:30;;;;;;;6.57;5.97;;;;;;;31.33;57.49;98539.84;5083546;27;20251;-82
2022/06/20 09:45:05;;;;;;;7.38;6.03;;;;;;;31.48;55.36;98556.19;5111943;27;20224;-82
2022/06/20 09:47:41;;;;;;;6.05;5.53;;;;;;;31.61;55.12;98550.38;5111012;28;20235;-80
2022/06/20 09:50:17;;;;;;;6.97;5.70;;;;;;;31.83;55.35;98549.31;5096569;28;20305;-81
2022/06/20 09:53:05;;;;;;;6.47;5.68;;;;;;;32.14;52.65;98561.81;5120269;27;20333;-80
2022/06/20 09:55:44;;;;;;;5.93;5.10;;;;;;;32.44;52.60;98559.53;5117067;27;20615;-80
2022/06/20 09:58:41;;;;;;;6.43;5.82;;;;;;;32.88;50.28;98573.19;5098959;27;20227;-80
2022/06/20 10:01:23;;;;;;;7.15;5.45;;;;;;;33.47;49.24;98593.88;5105576;27;20235;-79
2022/06/20 10:03:58;;;;;;;5.43;4.90;;;;;;;33.69;47.37;98628.03;5078804;28;20231;-79
2022/06/20 10:06:43;;;;;;;5.97;5.45;;;;;;;33.34;48.06;98656.56;5096192;28;20235;-79
2022/06/20 10:09:20;;;;;;;6.20;5.68;;;;;;;33.15;49.46;98679.09;5100121;28;20219;-79
2022/06/20 10:11:55;;;;;;;6.30;5.78;;;;;;;32.82;52.48;98671.81;5105312;27;20231;-80
2022/06/20 10:14:39;;;;;;;6.47;5.90;;;;;;;32.67;52.69;98646.00;5086614;28;20235;-79
2022/06/20 10:17:29;;;;;;;6.43;5.80;;;;;;;32.86;54.70;98647.66;5085391;27;20287;-80
2022/06/20 10:20:13;;;;;;;6.28;5.68;;;;;;;32.98;52.05;98649.31;5093895;28;20231;-82
2022/06/20 10:22:50;;;;;;;6.90;6.30;;;;;;;33.29;51.21;98651.38;5096151;28;20280;-79
2022/06/20 10:25:16;;;;;;;6.75;6.20;;;;;;;33.51;49.92;98666.06;5097027;27;20230;-80
2022/06/20 10:28:13;;;;;;;7.28;6.50;;;;;;;33.68;48.45;98673.69;5100962;27;21731;-79
2022/06/20 10:30:43;;;;;;;7.28;5.80;;;;;;;34.25;46.98;98671.66;5113792;28;20234;-80
2022/06/20 10:33:29;;;;;;;6.85;5.90;;;;;;;34.63;45.43;98683.06;5100332;28;20274;-81
2022/06/20 10:36:17;;;;;;;7.30;6.50;;;;;;;34.55;45.67;98684.31;5100418;27;20218;-81
2022/06/20 10:38:50;;;;;;;6.40;6.00;;;;;;;34.15;46.26;98688.34;5082412;27;20258;-80
2022/06/20 10:41:57;;;;;;;8.27;6.75;;;;;;;34.57;45.49;98693.06;5117348;27;20223;-80
2022/06/20 10:44:37;;;;;;;7.63;6.80;;;;;;;34.36;45.21;98691.09;5113820;27;20227;-81
2022/06/20 10:47:26;;;;;;;8.63;6.45;;;;;;;34.03;48.20;98690.31;5085308;27;20231;-81
2022/06/20 10:50:20;;;;;;;7.03;6.25;;;;;;;33.84;48.66;98685.16;5093498;27;20283;-80
2022/06/20 10:53:13;;;;;;;8.93;6.55;;;;;;;33.57;51.05;98693.06;5110957;27;20228;-81
2022/06/20 10:55:59;;;;;;;7.40;6.70;;;;;;;33.54;51.07;98688.31;5105827;27;20302;-80
2022/06/20 10:58:40;;;;;;;13.02;7.43;;;;;;;33.52;51.19;98698.22;5124222;27;20261;-80
2022/06/20 11:01:26;;;;;;;9.50;7.38;;;;;;;33.57;51.67;98692.28;5097698;27;20232;-80
2022/06/20 11:04:19;;;;;;;15.98;10.35;;;;;;;33.52;49.25;98689.88;5104457;27;20250;-81
2022/06/20 11:07:13;;;;;;;13.57;9.95;;;;;;;32.76;51.83;98690.03;5110734;27;20311;-83
2022/06/20 11:10:20;;;;;;;10.80;9.45;;;;;;;32.62;53.79;98706.56;5094893;28;20280;-83
2022/06/20 11:13:06;;;;;;;14.68;11.10;;;;;;;32.94;54.02;98704.78;5084270;27;20698;-82
2022/06/20 11:16:03;;;;;;;22.80;10.88;;;;;;;32.64;51.62;98693.16;5058310;28;20257;-82
2022/06/20 11:18:51;;;;;;;13.48;10.35;;;;;;;32.44;53.60;98698.16;5116422;27;20682;-83
2022/06/20 11:21:41;;;;;;;18.02;10.40;;;;;;;32.29;54.33;98694.50;5116663;27;20238;-80
2022/06/20 11:24:26;;;;;;;12.60;9.70;;;;;;;32.60;53.63;98701.41;5100953;27;20212;-81
2022/06/20 11:27:24;;;;;;;16.98;10.70;;;;;;;32.84;51.21;98685.31;5113209;27;20227;-80
2022/06/20 11:30:05;;;;;;;12.00;9.50;;;;;;;33.09;49.96;98697.28;5092695;27;20251;-81
2022/06/20 11:32:50;;;;;;;11.63;9.10;;;;;;;33.22;47.82;98692.22;5082474;28;20227;-80
2022/06/20 11:35:54;;;;;;;13.85;9.25;;;;;;;33.56;47.34;98696.22;5103893;27;20797;-81
2022/06/20 11:38:41;;;;;;;9.80;8.77;;;;;;;34.07;44.13;98701.44;5081581;28;20697;-80
2022/06/20 11:41:16;;;;;;;12.13;8.45;;;;;;;34.28;43.14;98700.66;5118123;27;20258;-81
2022/06/20 11:44:06;;;;;;;11.68;8.65;;;;;;;34.33;43.88;98706.63;5080013;28;20242;-82
2022/06/20 11:46:59;;;;;;;13.02;9.27;;;;;;;34.12;44.49;98709.38;5069692;27;20226;-81
2022/06/20 11:49:38;;;;;;;13.70;8.85;;;;;;;34.41;44.43;98699.03;5115156;27;20240;-80
2022/06/20 11:52:12;;;;;;;13.82;9.32;;;;;;;34.37;45.02;98712.97;5093787;28;20234;-81
2022/06/20 11:54:59;;;;;;;11.02;8.88;;;;;;;33.40;47.03;98702.19;5114166;27;20215;-80
2022/06/20 11:57:44;;;;;;;12.25;8.90;;;;;;;32.59;50.75;98710.91;5116461;27;20358;-81
2022/06/20 12:00:20;;;;;;;13.98;9.38;;;;;;;32.20;50.90;98718.19;5083487;27;20678;-80
2022/06/20 12:02:54;;;;;;;10.20;9.10;;;;;;;31.98;53.05;98727.47;5107704;27;20275;-81
2022/06/20 12:06:05;;;;;;;13.25;9.18;;;;;;;31.59;55.50;98754.81;5077667;28;20236;-80
2022/06/20 12:08:41;;;;;;;11.90;8.77;;;;;;;31.32;55.81;98760.44;5033018;28;20221;-80
2022/06/20 12:11:13;;;;;;;12.60;9.60;;;;;;;31.16;58.38;98764.59;5105036;27;20229;-79
2022/06/20 12:13:56;;;;;;;12.95;9.07;;;;;;;31.07;58.90;98772.38;5103949;27;20262;-80
2022/06/20 12:16:44;;;;;;;11.18;8.75;;;;;;;31.03;60.25;98773.09;5120478;27;20223;-81
2022/06/20 12:25:20;;;;;;;11.10;8.55;;;;;;;31.94;55.26;98770.97;5070908;27;20235;-84
2022/06/20 12:27:47;;;;;;;9.15;7.93;;;;;;;32.18;56.14;98760.16;5098780;28;20314;-81
2022/06/20 12:30:15;;;;;;;11.20;7.97;;;;;;;32.76;53.55;98753.81;5111872;28;20208;-81